Time;durP1;ratioP1;P1;durP2;ratioP2;P2;SDS_P1;SDS_P2;PMS_P1;PMS_P2;Temp;Humidity;BMP_temperature;BMP_pressure;BME280_temperature;BME280_humidity;BME280_pressure;Samples;Min_cycle;Max_cycle;Signal;HPM_P1;HPM_P2
2023/02/22 00:01:06;;;;;;;6.40;4.60;;;;;;;3.29;64.81;99609.04;108084;1256;62212;-70
2023/02/22 00:03:35;;;;;;;7.60;4.50;;;;;;;3.26;64.67;99609.63;107977;1256;61189;-72
2023/02/22 00:06:04;;;;;;;7.30;4.80;;;;;;;3.23;64.70;99619.09;108024;1256;72915;-71
2023/02/22 00:08:34;;;;;;;7.10;4.80;;;;;;;3.21;64.86;99622.74;108032;1256;72905;-71
2023/02/22 00:11:07;;;;;;;6.80;4.80;;;;;;;3.22;64.97;99630.73;108017;1256;72404;-69
2023/02/22 00:13:37;;;;;;;5.50;3.80;;;;;;;3.20;64.71;99631.86;108020;1256;62113;-71
2023/02/22 00:16:05;;;;;;;4.80;3.40;;;;;;;3.15;64.10;99629.73;108041;1256;60311;-73
2023/02/22 00:18:36;;;;;;;5.90;3.40;;;;;;;3.09;63.16;99628.98;108006;1255;73544;-73
2023/02/22 00:21:09;;;;;;;6.30;3.80;;;;;;;3.06;62.89;99640.19;108057;1256;73756;-71
2023/02/22 00:23:48;;;;;;;4.70;3.30;;;;;;;3.03;62.84;99647.70;107990;1256;71746;-70
2023/02/22 00:26:22;;;;;;;5.20;3.70;;;;;;;3.02;62.63;99649.83;108074;1256;60398;-71
2023/02/22 00:28:52;;;;;;;6.20;3.70;;;;;;;3.01;62.58;99654.48;108009;1256;61439;-71
2023/02/22 00:31:20;;;;;;;6.20;4.10;;;;;;;2.99;62.67;99659.34;108044;1255;73364;-71
2023/02/22 00:33:50;;;;;;;6.10;4.00;;;;;;;2.97;62.69;99661.85;108088;1256;73840;-71
2023/02/22 00:36:18;;;;;;;5.40;3.70;;;;;;;2.97;62.83;99665.10;108019;1257;73222;-71
2023/02/22 00:38:47;;;;;;;6.50;3.80;;;;;;;2.97;62.99;99672.77;108031;1260;60848;-71
2023/02/22 00:41:16;;;;;;;6.00;3.70;;;;;;;2.96;63.01;99680.65;108042;1258;60445;-74
2023/02/22 00:43:47;;;;;;;6.40;3.70;;;;;;;2.95;62.53;99683.15;108066;1256;73034;-70
2023/02/22 00:46:16;;;;;;;6.20;4.10;;;;;;;2.77;62.50;99687.16;108044;1256;72644;-72
2023/02/22 00:48:45;;;;;;;6.40;3.80;;;;;;;2.71;62.68;99694.73;107986;1260;73274;-71
2023/02/22 00:51:13;;;;;;;5.30;3.30;;;;;;;2.70;62.60;99694.34;107970;1260;61895;-70
2023/02/22 00:53:42;;;;;;;5.10;3.60;;;;;;;2.69;62.44;99695.92;108006;1257;60378;-71
2023/02/22 00:56:11;;;;;;;5.60;3.60;;;;;;;2.68;62.37;99711.69;107999;1257;74168;-71
2023/02/22 00:58:39;;;;;;;5.70;3.80;;;;;;;2.65;62.12;99708.65;107970;1256;72957;-70
2023/02/22 01:01:08;;;;;;;5.80;3.70;;;;;;;2.63;61.85;99711.60;108013;1260;72505;-69
2023/02/22 01:03:40;;;;;;;6.00;3.50;;;;;;;2.75;61.37;99717.13;107984;1257;60946;-71
2023/02/22 01:06:09;;;;;;;5.50;3.60;;;;;;;2.78;60.96;99721.07;107790;1261;60306;-70
2023/02/22 01:08:37;;;;;;;5.80;3.90;;;;;;;2.77;60.53;99724.45;108021;1260;72858;-71
2023/02/22 01:11:05;;;;;;;5.70;3.60;;;;;;;2.76;60.63;99724.06;108040;1256;73638;-73
2023/02/22 01:13:34;;;;;;;6.20;3.60;;;;;;;2.75;60.46;99729.52;108034;1256;72118;-72
2023/02/22 01:16:03;;;;;;;7.20;4.10;;;;;;;2.73;60.35;99734.13;108028;1258;61436;-70
2023/02/22 01:18:32;;;;;;;6.40;4.00;;;;;;;2.73;60.25;99744.02;107998;1256;61334;-70
2023/02/22 01:21:01;;;;;;;6.50;3.90;;;;;;;2.72;60.21;99743.04;107986;1260;73400;-71
2023/02/22 01:23:30;;;;;;;5.90;3.90;;;;;;;2.71;60.19;99749.30;108010;1260;70976;-70
2023/02/22 01:25:58;;;;;;;5.90;3.90;;;;;;;2.70;60.36;99748.94;108051;1260;73545;-70
2023/02/22 01:28:29;;;;;;;5.80;3.90;;;;;;;2.70;60.25;99760.13;107832;1262;59381;-70
2023/02/22 01:30:57;;;;;;;6.60;3.90;;;;;;;2.69;60.24;99761.00;108017;1256;61133;-69
2023/02/22 01:33:26;;;;;;;5.90;4.10;;;;;;;2.67;60.10;99766.02;108048;1260;74550;-71
2023/02/22 01:35:55;;;;;;;7.40;4.10;;;;;;;2.66;60.10;99773.70;108008;1256;73980;-71
2023/02/22 01:38:24;;;;;;;5.50;3.70;;;;;;;2.65;60.25;99773.52;108030;1258;72898;-71
2023/02/22 01:40:54;;;;;;;6.30;3.90;;;;;;;2.64;60.26;99779.70;108017;1257;62065;-71
2023/02/22 01:43:26;;;;;;;6.80;4.30;;;;;;;2.61;59.96;99781.32;108056;1258;61028;-70
2023/02/22 01:46:01;;;;;;;6.80;4.10;;;;;;;2.57;59.96;99782.38;108086;1256;73407;-70
2023/02/22 01:48:43;;;;;;;5.60;3.70;;;;;;;2.55;59.92;99786.85;108048;1258;72732;-70
2023/02/22 01:51:21;;;;;;;5.20;3.70;;;;;;;2.51;59.83;99795.75;108048;1260;73677;-70
2023/02/22 01:53:54;;;;;;;6.00;3.90;;;;;;;2.48;59.84;99800.38;108109;1260;62061;-69
2023/02/22 01:56:23;;;;;;;7.20;4.50;;;;;;;2.47;59.72;99801.77;108006;1256;60339;-70
2023/02/22 01:58:56;;;;;;;7.50;4.80;;;;;;;2.47;59.52;99808.20;107964;1259;74779;-71
2023/02/22 02:01:24;;;;;;;7.00;4.20;;;;;;;2.48;59.49;99810.71;108044;1256;73355;-71
2023/02/22 02:03:56;;;;;;;8.50;5.00;;;;;;;2.47;59.14;99817.54;107981;1256;73017;-71
2023/02/22 02:06:26;;;;;;;7.10;4.50;;;;;;;2.45;58.96;99822.95;108055;1256;62128;-71
2023/02/22 02:09:10;;;;;;;7.00;4.20;;;;;;;2.41;58.64;99829.25;108048;1256;60422;-71
2023/02/22 02:11:39;;;;;;;7.90;4.40;;;;;;;2.36;58.50;99832.84;107985;1257;74615;-71
2023/02/22 02:14:08;;;;;;;7.60;4.80;;;;;;;2.34;58.47;99840.11;107911;1257;72102;-70
2023/02/22 02:16:49;;;;;;;8.40;4.70;;;;;;;2.33;58.46;99845.11;108035;1260;72898;-71
2023/02/22 02:19:43;;;;;;;7.00;4.40;;;;;;;2.31;58.45;99854.02;107978;1257;62125;-71
2023/02/22 02:22:41;;;;;;;7.60;4.00;;;;;;;2.27;58.16;99863.66;108024;1257;60757;-70
2023/02/22 02:25:29;;;;;;;7.40;4.10;;;;;;;2.27;58.18;99866.75;108075;1258;73843;-69
2023/02/22 02:28:26;;;;;;;8.70;5.10;;;;;;;2.23;57.96;99875.35;108068;1260;72298;-69
2023/02/22 02:31:16;;;;;;;6.70;3.90;;;;;;;2.20;57.69;99877.94;108025;1260;73007;-69
2023/02/22 02:33:58;;;;;;;8.30;4.40;;;;;;;2.14;56.98;99885.83;108040;1257;61123;-69
2023/02/22 02:36:33;;;;;;;6.80;3.80;;;;;;;2.10;56.47;99884.92;108027;1257;61358;-70
2023/02/22 02:39:28;;;;;;;7.80;4.50;;;;;;;2.06;55.79;99889.65;107800;1257;73922;-71
2023/02/22 02:41:58;;;;;;;10.20;5.70;;;;;;;2.05;55.82;99893.03;108001;1257;72864;-69
2023/02/22 02:44:48;;;;;;;7.80;5.00;;;;;;;2.03;55.22;99904.73;107954;1260;73979;-71
2023/02/22 02:47:20;;;;;;;6.80;4.10;;;;;;;2.01;54.35;99905.55;108014;1261;60810;-73
2023/02/22 02:50:08;;;;;;;5.20;3.20;;;;;;;1.98;53.33;99914.56;108140;1257;61056;-71
2023/02/22 02:52:37;;;;;;;5.20;3.50;;;;;;;1.96;52.64;99909.85;108115;1257;75089;-69
2023/02/22 02:55:10;;;;;;;5.30;2.80;;;;;;;1.96;52.23;99918.56;108060;1258;73447;-71
2023/02/22 02:57:41;;;;;;;5.40;3.50;;;;;;;1.94;52.14;99925.99;107943;1260;72131;-71
2023/02/22 03:00:22;;;;;;;5.90;3.40;;;;;;;1.95;52.23;99938.39;108089;1258;60417;-70
2023/02/22 03:03:01;;;;;;;6.20;3.80;;;;;;;1.93;52.29;99944.02;108107;1260;60420;-69
2023/02/22 03:05:48;;;;;;;5.40;3.20;;;;;;;1.93;52.35;99952.05;108033;1257;75527;-69
2023/02/22 03:08:25;;;;;;;6.10;3.40;;;;;;;1.94;52.18;99953.91;107971;1257;72496;-70
2023/02/22 03:11:13;;;;;;;6.20;3.90;;;;;;;1.94;52.25;99956.10;107803;1257;71397;-69
2023/02/22 03:13:54;;;;;;;7.30;4.50;;;;;;;1.94;52.42;99960.80;107984;1257;60587;-69
2023/02/22 03:17:04;;;;;;;7.10;4.40;;;;;;;1.95;52.69;99967.77;107962;1258;60578;-70
2023/02/22 03:19:37;;;;;;;8.20;4.80;;;;;;;1.96;53.52;99965.55;107976;1257;74156;-69
2023/02/22 03:22:10;;;;;;;7.80;4.30;;;;;;;1.95;53.68;99972.17;107797;1257;71574;-70
2023/02/22 03:24:54;;;;;;;6.50;4.10;;;;;;;1.95;53.81;99970.88;108001;1257;73565;-70
2023/02/22 03:27:42;;;;;;;6.60;4.10;;;;;;;1.95;53.43;99972.02;107949;1257;61811;-70
2023/02/22 03:30:36;;;;;;;8.70;4.60;;;;;;;1.95;53.04;99977.27;108018;1256;60440;-69
2023/02/22 03:33:19;;;;;;;8.20;4.50;;;;;;;1.94;53.09;99986.89;108035;1256;74860;-69
2023/02/22 03:35:56;;;;;;;7.30;4.50;;;;;;;1.93;53.03;99994.71;108032;1258;72558;-70
2023/02/22 03:38:26;;;;;;;8.10;4.70;;;;;;;1.94;53.07;99994.69;107948;1257;73187;-68
2023/02/22 03:40:58;;;;;;;8.50;4.80;;;;;;;1.93;52.70;100000.55;107759;1257;60287;-69
2023/02/22 03:43:29;;;;;;;7.70;4.60;;;;;;;1.93;52.35;99998.16;107963;1256;61114;-70
2023/02/22 03:45:59;;;;;;;10.20;5.10;;;;;;;1.94;52.22;100004.02;108002;1257;74097;-70
2023/02/22 03:48:44;;;;;;;7.70;5.00;;;;;;;1.93;52.09;100002.45;108011;1257;71818;-70
2023/02/22 03:51:16;;;;;;;9.30;5.60;;;;;;;1.92;52.17;100006.64;108107;1256;72585;-70
2023/02/22 03:53:46;;;;;;;8.40;5.50;;;;;;;1.92;52.38;100007.58;107816;1260;60475;-70
2023/02/22 03:56:34;;;;;;;8.90;5.70;;;;;;;1.92;52.62;100016.85;107837;1256;60226;-70
2023/02/22 03:59:07;;;;;;;9.10;5.20;;;;;;;1.92;52.86;100019.20;107919;1256;73320;-70
2023/02/22 04:01:36;;;;;;;7.10;4.50;;;;;;;1.91;53.26;100027.88;107967;1257;74073;-70
2023/02/22 04:04:06;;;;;;;7.80;4.90;;;;;;;1.88;53.75;100034.73;108001;1255;73006;-70
2023/02/22 04:06:36;;;;;;;8.00;5.00;;;;;;;1.84;54.14;100031.23;107952;1256;60335;-70
2023/02/22 04:09:07;;;;;;;7.60;4.40;;;;;;;1.81;54.41;100038.31;107935;1260;60451;-70
2023/02/22 04:11:36;;;;;;;7.10;4.50;;;;;;;1.80;54.68;100038.60;107786;1257;74664;-71
2023/02/22 04:14:04;;;;;;;8.60;5.60;;;;;;;1.78;54.84;100044.05;107966;1260;73527;-71
2023/02/22 04:16:33;;;;;;;7.30;4.80;;;;;;;1.77;54.95;100047.05;107957;1256;73034;-70
2023/02/22 04:19:06;;;;;;;8.70;5.20;;;;;;;1.76;55.09;100053.08;107828;1261;58994;-71
2023/02/22 04:21:35;;;;;;;8.90;5.50;;;;;;;1.76;55.13;100058.87;107983;1256;61337;-71
2023/02/22 04:24:05;;;;;;;9.20;5.80;;;;;;;1.77;55.16;100059.44;107910;1256;73438;-71
2023/02/22 04:26:33;;;;;;;9.50;5.20;;;;;;;1.79;55.20;100063.23;107920;1257;72855;-70
2023/02/22 04:29:03;;;;;;;8.40;5.20;;;;;;;1.80;55.03;100069.02;107826;1257;72013;-70
2023/02/22 04:31:37;;;;;;;9.40;5.70;;;;;;;1.80;55.05;100072.21;108148;1254;60425;-69
2023/02/22 04:34:07;;;;;;;8.40;5.20;;;;;;;1.80;55.02;100079.23;108179;1254;60068;-70
2023/02/22 04:36:41;;;;;;;8.60;5.10;;;;;;;1.79;55.29;100086.04;108159;1254;71889;-70
2023/02/22 04:39:10;;;;;;;8.30;4.40;;;;;;;1.79;55.30;100097.34;108145;1254;71971;-71
2023/02/22 04:41:38;;;;;;;7.50;4.30;;;;;;;1.74;55.00;100102.95;108161;1254;72069;-71
2023/02/22 04:44:08;;;;;;;7.50;4.40;;;;;;;1.64;54.60;100110.50;108158;1254;60214;-70
2023/02/22 04:46:37;;;;;;;6.60;4.20;;;;;;;1.56;54.39;100109.14;108000;1257;60332;-70
2023/02/22 04:49:08;;;;;;;7.20;4.80;;;;;;;1.47;54.39;100113.23;107947;1257;73888;-70
2023/02/22 04:51:40;;;;;;;8.20;4.50;;;;;;;1.43;54.31;100118.55;108020;1257;72037;-70
2023/02/22 04:54:16;;;;;;;7.60;4.40;;;;;;;1.41;54.45;100117.42;107900;1256;72638;-71
2023/02/22 04:56:47;;;;;;;8.30;4.60;;;;;;;1.40;54.40;100128.39;107901;1257;62024;-70
2023/02/22 04:59:22;;;;;;;8.70;5.10;;;;;;;1.39;54.50;100123.63;107952;1258;60530;-71
2023/02/22 05:01:57;;;;;;;8.30;4.60;;;;;;;1.38;54.57;100127.02;107974;1256;73754;-70
2023/02/22 05:04:26;;;;;;;8.10;4.80;;;;;;;1.41;54.31;100130.94;108012;1257;73998;-70
2023/02/22 05:06:54;;;;;;;7.80;4.70;;;;;;;1.40;54.32;100134.67;107913;1257;71242;-70
2023/02/22 05:09:23;;;;;;;8.00;4.90;;;;;;;1.41;54.24;100142.83;107949;1260;61492;-70
2023/02/22 05:11:53;;;;;;;8.00;4.70;;;;;;;1.42;54.15;100148.92;107937;1257;60441;-70
2023/02/22 05:14:21;;;;;;;7.90;4.70;;;;;;;1.41;54.25;100150.73;107979;1256;73605;-69
2023/02/22 05:16:50;;;;;;;6.80;4.30;;;;;;;1.41;54.40;100156.81;107974;1257;73076;-70
2023/02/22 05:19:19;;;;;;;8.30;4.70;;;;;;;1.42;54.29;100158.71;107787;1256;73172;-70
2023/02/22 05:21:47;;;;;;;8.30;4.70;;;;;;;1.42;54.19;100169.94;107953;1256;60399;-70
2023/02/22 05:24:16;;;;;;;8.40;4.50;;;;;;;1.42;54.29;100174.15;107945;1255;60290;-70
2023/02/22 05:26:45;;;;;;;8.90;5.00;;;;;;;1.42;53.85;100180.79;107966;1256;73387;-70
2023/02/22 05:29:13;;;;;;;8.10;4.50;;;;;;;1.43;53.84;100185.60;107963;1256;73659;-72
2023/02/22 05:31:43;;;;;;;6.90;4.30;;;;;;;1.45;53.82;100187.70;107965;1260;73962;-70
2023/02/22 05:34:11;;;;;;;7.50;4.60;;;;;;;1.46;53.23;100200.29;107967;1256;60332;-70
2023/02/22 05:36:41;;;;;;;6.90;4.10;;;;;;;1.42;52.48;100201.31;107957;1255;60339;-71
2023/02/22 05:39:11;;;;;;;8.00;4.70;;;;;;;1.37;52.07;100208.60;108129;1257;73746;-71
2023/02/22 05:41:39;;;;;;;7.70;4.50;;;;;;;1.33;52.04;100213.98;108111;1256;73909;-70
2023/02/22 05:44:08;;;;;;;8.30;4.90;;;;;;;1.34;51.92;100217.67;107845;1256;72142;-70
2023/02/22 05:46:38;;;;;;;9.80;5.70;;;;;;;1.31;51.67;100218.05;108062;1256;60937;-71
2023/02/22 05:49:06;;;;;;;8.30;4.90;;;;;;;1.29;51.73;100226.52;107930;1257;60933;-70
2023/02/22 05:51:35;;;;;;;10.10;4.90;;;;;;;1.29;51.54;100231.09;107901;1257;73354;-70
2023/02/22 05:54:03;;;;;;;7.50;4.90;;;;;;;1.27;51.53;100234.11;107858;1256;74038;-71
2023/02/22 05:56:32;;;;;;;9.40;5.00;;;;;;;1.27;51.55;100240.67;108068;1256;72678;-70
2023/02/22 05:59:00;;;;;;;8.30;4.50;;;;;;;1.27;51.68;100241.92;108004;1256;60214;-70
2023/02/22 06:01:31;;;;;;;7.80;5.20;;;;;;;1.25;51.33;100249.30;108134;1255;60297;-72
2023/02/22 06:03:59;;;;;;;9.00;5.30;;;;;;;1.26;51.57;100249.91;108082;1257;73394;-70
2023/02/22 06:06:28;;;;;;;8.90;5.20;;;;;;;1.29;51.78;100256.75;108129;1257;72930;-71
2023/02/22 06:08:56;;;;;;;9.10;5.40;;;;;;;1.30;51.54;100254.59;108136;1255;73800;-71
2023/02/22 06:11:25;;;;;;;8.30;4.90;;;;;;;1.32;52.04;100261.41;108021;1256;60661;-72
2023/02/22 06:13:58;;;;;;;9.10;4.80;;;;;;;1.32;51.78;100265.94;107953;1256;60568;-70
2023/02/22 06:16:27;;;;;;;8.80;5.00;;;;;;;1.31;51.47;100272.14;108137;1256;74743;-71
2023/02/22 06:18:55;;;;;;;9.60;4.90;;;;;;;1.27;51.37;100277.58;108051;1255;72374;-71
2023/02/22 06:21:24;;;;;;;9.20;5.30;;;;;;;1.24;51.66;100285.28;108117;1255;72990;-71
2023/02/22 06:23:52;;;;;;;9.30;5.00;;;;;;;1.20;51.87;100289.33;108110;1256;60440;-70
2023/02/22 06:26:21;;;;;;;9.00;4.60;;;;;;;1.14;51.93;100292.89;108092;1256;60485;-71
2023/02/22 06:28:50;;;;;;;9.70;5.20;;;;;;;1.13;52.08;100294.27;108025;1257;74078;-71
2023/02/22 06:31:19;;;;;;;8.70;5.30;;;;;;;1.17;52.22;100297.90;107990;1254;73734;-71
2023/02/22 06:33:48;;;;;;;9.90;5.70;;;;;;;1.22;52.76;100300.94;108146;1254;71320;-70
2023/02/22 06:36:16;;;;;;;10.20;6.00;;;;;;;1.29;52.92;100305.11;108101;1254;60814;-71
2023/02/22 06:38:44;;;;;;;11.00;6.30;;;;;;;1.35;52.65;100307.14;108122;1254;60345;-71
2023/02/22 06:41:14;;;;;;;12.60;7.00;;;;;;;1.38;52.86;100310.87;108136;1254;75032;-70
2023/02/22 06:43:46;;;;;;;10.40;6.10;;;;;;;1.41;52.62;100310.42;108190;1254;72080;-71
2023/02/22 06:46:15;;;;;;;8.70;5.50;;;;;;;1.40;52.21;100317.67;108113;1256;71052;-70
2023/02/22 06:48:43;;;;;;;9.90;5.90;;;;;;;1.41;51.97;100313.50;108068;1256;60555;-71
2023/02/22 06:51:11;;;;;;;11.80;6.40;;;;;;;1.39;51.92;100311.18;108084;1256;61342;-71
2023/02/22 06:53:40;;;;;;;10.60;6.40;;;;;;;1.36;51.72;100314.91;107921;1256;74959;-71
2023/02/22 06:56:08;;;;;;;11.20;6.50;;;;;;;1.35;51.90;100319.81;108085;1255;71690;-71
2023/02/22 06:58:37;;;;;;;11.30;5.70;;;;;;;1.37;51.59;100325.05;108085;1256;72900;-71
2023/02/22 07:01:06;;;;;;;11.10;6.50;;;;;;;1.39;51.45;100331.19;108109;1260;60345;-71
2023/02/22 07:03:35;;;;;;;9.90;5.50;;;;;;;1.41;51.28;100334.83;108008;1255;60234;-70
2023/02/22 07:06:05;;;;;;;8.80;5.20;;;;;;;1.40;50.99;100339.05;108089;1256;73009;-72
2023/02/22 07:08:37;;;;;;;10.50;5.60;;;;;;;1.40;50.84;100348.40;108093;1256;71658;-70
2023/02/22 07:11:06;;;;;;;11.00;6.60;;;;;;;1.45;51.16;100350.02;108081;1256;73618;-71
2023/02/22 07:13:36;;;;;;;11.70;7.20;;;;;;;1.52;51.23;100356.45;107950;1256;60475;-72
2023/02/22 07:16:08;;;;;;;11.10;6.20;;;;;;;1.56;51.69;100365.52;108111;1256;60592;-71
2023/02/22 07:18:37;;;;;;;14.80;10.20;;;;;;;1.62;51.80;100368.70;108097;1255;75023;-71
2023/02/22 07:21:06;;;;;;;11.80;7.10;;;;;;;1.67;51.95;100369.82;107896;1256;73179;-71
2023/02/22 07:23:35;;;;;;;12.50;7.90;;;;;;;1.69;51.78;100373.02;107881;1255;73840;-72
2023/02/22 07:26:04;;;;;;;10.60;6.60;;;;;;;1.68;51.65;100383.91;107920;1256;60432;-73
2023/02/22 07:28:32;;;;;;;9.10;5.50;;;;;;;1.64;51.35;100381.23;107941;1256;60259;-70
2023/02/22 07:31:01;;;;;;;11.40;6.60;;;;;;;1.58;51.09;100385.78;107978;1255;72877;-71
2023/02/22 07:33:29;;;;;;;12.40;6.80;;;;;;;1.54;50.99;100382.17;108090;1255;73109;-71
2023/02/22 07:35:58;;;;;;;12.70;7.00;;;;;;;1.50;51.08;100384.77;108053;1258;73772;-72
2023/02/22 07:38:27;;;;;;;11.60;7.00;;;;;;;1.45;51.04;100387.42;107951;1256;59379;-71
2023/02/22 07:40:56;;;;;;;11.30;6.80;;;;;;;1.40;50.96;100387.19;107921;1255;61188;-71
2023/02/22 07:43:27;;;;;;;9.60;5.90;;;;;;;1.38;51.02;100390.94;107878;1255;71811;-72
2023/02/22 07:46:03;;;;;;;10.50;6.60;;;;;;;1.46;51.08;100390.83;107879;1256;72387;-72
2023/02/22 07:48:51;;;;;;;9.20;5.50;;;;;;;1.57;51.13;100391.61;107911;1258;72083;-70
2023/02/22 07:51:43;;;;;;;11.30;6.90;;;;;;;1.61;50.75;100391.05;107851;1260;60375;-70
2023/02/22 07:54:26;;;;;;;11.60;6.80;;;;;;;1.65;50.68;100391.65;107853;1256;60365;-70
2023/02/22 07:57:28;;;;;;;10.70;6.80;;;;;;;1.68;50.65;100390.60;107921;1255;74818;-71
2023/02/22 08:00:25;;;;;;;13.20;6.80;;;;;;;1.71;50.82;100391.34;107902;1260;73147;-71
2023/02/22 08:02:54;;;;;;;9.80;6.20;;;;;;;1.80;50.65;100388.73;108079;1255;71824;-71
2023/02/22 08:05:24;;;;;;;11.20;6.00;;;;;;;1.92;50.67;100393.36;108100;1256;60322;-72
2023/02/22 08:07:53;;;;;;;10.70;6.40;;;;;;;1.98;50.14;100393.71;108125;1255;60336;-71
2023/02/22 08:10:23;;;;;;;10.80;6.70;;;;;;;1.99;50.34;100395.73;108029;1256;74141;-72
2023/02/22 08:12:53;;;;;;;11.00;6.60;;;;;;;2.01;50.55;100395.13;107944;1255;72198;-70
2023/02/22 08:15:25;;;;;;;11.20;6.70;;;;;;;2.06;50.51;100395.33;108013;1255;73722;-70
2023/02/22 08:17:55;;;;;;;10.40;6.40;;;;;;;2.12;50.43;100399.11;108090;1255;60924;-70
2023/02/22 08:20:24;;;;;;;10.00;6.60;;;;;;;2.20;50.29;100400.69;108090;1255;60290;-71
2023/02/22 08:22:54;;;;;;;11.40;7.00;;;;;;;2.26;50.49;100403.73;108079;1256;74243;-72
2023/02/22 08:25:24;;;;;;;10.60;7.00;;;;;;;2.32;50.52;100403.42;108179;1255;71123;-72
2023/02/22 08:27:57;;;;;;;11.20;7.10;;;;;;;2.39;50.41;100412.54;107947;1256;73211;-71
2023/02/22 08:30:27;;;;;;;10.90;7.20;;;;;;;2.38;50.16;100409.77;107897;1256;60788;-71
2023/02/22 08:32:56;;;;;;;10.70;6.80;;;;;;;2.37;49.98;100415.41;108035;1256;61473;-72
2023/02/22 08:35:26;;;;;;;12.40;7.90;;;;;;;2.38;49.88;100410.95;107899;1256;74840;-69
2023/02/22 08:37:57;;;;;;;11.80;8.00;;;;;;;2.43;50.15;100412.85;108082;1256;72061;-70
2023/02/22 08:40:27;;;;;;;14.10;8.10;;;;;;;2.48;49.93;100414.49;108112;1255;70635;-70
2023/02/22 08:42:55;;;;;;;12.60;7.80;;;;;;;2.56;50.27;100422.52;108015;1255;59476;-70
2023/02/22 08:45:24;;;;;;;11.10;7.50;;;;;;;2.62;49.65;100418.55;108126;1256;60470;-72
2023/02/22 08:47:52;;;;;;;10.90;6.90;;;;;;;2.64;49.20;100423.86;107943;1256;74200;-70
2023/02/22 08:50:27;;;;;;;10.80;6.80;;;;;;;2.60;48.83;100419.54;108133;1256;72009;-71
2023/02/22 08:53:00;;;;;;;10.20;6.20;;;;;;;2.50;48.54;100426.57;108106;1255;71609;-71
2023/02/22 08:55:33;;;;;;;10.20;6.70;;;;;;;2.41;48.46;100422.59;108066;1256;60435;-70
2023/02/22 08:58:02;;;;;;;11.40;6.20;;;;;;;2.41;48.41;100419.39;108100;1255;60758;-70
2023/02/22 09:00:32;;;;;;;8.70;5.00;;;;;;;2.47;47.77;100424.59;108064;1255;74117;-70
2023/02/22 09:03:05;;;;;;;6.50;4.20;;;;;;;2.46;46.56;100426.95;107860;1256;74034;-71
2023/02/22 09:05:34;;;;;;;8.00;4.60;;;;;;;2.40;45.43;100431.63;107986;1256;73977;-70
2023/02/22 09:08:03;;;;;;;7.30;4.60;;;;;;;2.39;45.21;100429.77;108041;1255;60478;-70
2023/02/22 09:10:32;;;;;;;6.60;4.50;;;;;;;2.43;45.23;100431.22;108127;1256;60431;-71
2023/02/22 09:13:05;;;;;;;8.00;4.70;;;;;;;2.50;45.12;100427.40;108062;1256;72697;-70
2023/02/22 09:15:35;;;;;;;7.70;4.60;;;;;;;2.56;44.94;100435.61;108013;1256;73081;-70
2023/02/22 09:18:04;;;;;;;8.10;5.30;;;;;;;2.62;44.63;100432.83;107997;1255;72958;-71
2023/02/22 09:20:34;;;;;;;7.60;5.10;;;;;;;2.63;44.57;100432.98;107901;1255;59810;-71
2023/02/22 09:23:04;;;;;;;8.60;5.40;;;;;;;2.67;44.79;100433.63;107946;1255;60356;-71
2023/02/22 09:25:39;;;;;;;6.80;4.60;;;;;;;2.79;44.89;100429.41;107954;1256;74860;-71
2023/02/22 09:28:08;;;;;;;7.30;4.70;;;;;;;2.92;44.11;100433.91;107918;1255;72803;-70
2023/02/22 09:30:38;;;;;;;7.60;4.70;;;;;;;2.95;43.65;100435.30;107922;1260;70763;-71
2023/02/22 09:33:13;;;;;;;9.10;4.80;;;;;;;2.96;43.57;100439.45;108125;1254;60349;-69
2023/02/22 09:35:45;;;;;;;8.90;5.40;;;;;;;2.93;43.42;100438.61;108043;1255;60727;-70
2023/02/22 09:38:20;;;;;;;7.90;5.10;;;;;;;2.90;43.35;100445.48;107934;1256;75047;-71
2023/02/22 09:40:53;;;;;;;8.20;5.30;;;;;;;2.91;43.65;100448.40;107960;1256;73930;-70
2023/02/22 09:43:39;;;;;;;6.90;3.80;;;;;;;2.91;43.07;100442.60;108034;1256;70538;-71
2023/02/22 09:46:40;;;;;;;8.20;5.40;;;;;;;2.83;42.47;100440.48;108122;1256;60298;-71
2023/02/22 09:49:31;;;;;;;8.20;5.40;;;;;;;2.79;43.23;100443.65;108110;1256;60323;-70
2023/02/22 09:52:06;;;;;;;8.10;4.80;;;;;;;2.86;43.36;100445.13;108064;1255;74996;-70
2023/02/22 09:54:51;;;;;;;7.20;4.50;;;;;;;2.90;43.08;100449.70;107965;1255;72744;-70
2023/02/22 09:57:46;;;;;;;7.70;4.60;;;;;;;2.81;42.43;100448.60;107898;1255;72783;-69
2023/02/22 10:00:32;;;;;;;6.70;4.40;;;;;;;2.68;42.44;100453.86;107965;1255;60389;-72
2023/02/22 10:03:35;;;;;;;7.30;4.30;;;;;;;2.59;42.62;100453.61;107944;1256;60392;-71
2023/02/22 10:06:09;;;;;;;7.70;4.70;;;;;;;2.55;42.56;100448.52;108012;1255;73253;-69
2023/02/22 10:08:37;;;;;;;6.80;4.50;;;;;;;2.61;42.85;100460.09;108055;1255;72331;-70
2023/02/22 10:11:34;;;;;;;10.80;4.90;;;;;;;2.72;42.78;100451.38;107913;1255;73875;-70
2023/02/22 10:14:24;;;;;;;7.30;4.80;;;;;;;2.89;42.85;100457.37;107986;1255;60626;-70
2023/02/22 10:17:11;;;;;;;8.60;4.70;;;;;;;3.06;42.02;100452.64;107967;1255;60436;-70
2023/02/22 10:19:43;;;;;;;7.30;4.60;;;;;;;3.14;41.22;100454.55;108001;1255;73784;-71
2023/02/22 10:22:27;;;;;;;8.10;4.40;;;;;;;3.17;40.74;100460.58;107901;1256;72762;-70
2023/02/22 10:24:58;;;;;;;6.40;4.50;;;;;;;3.12;40.51;100458.34;107980;1255;73623;-71
2023/02/22 10:27:32;;;;;;;8.00;4.80;;;;;;;3.09;40.69;100459.76;108098;1256;59223;-70
2023/02/22 10:30:12;;;;;;;7.30;4.80;;;;;;;3.09;40.54;100457.05;108113;1255;61593;-70
2023/02/22 10:32:57;;;;;;;8.00;4.90;;;;;;;3.05;40.71;100461.00;107997;1255;73899;-70
2023/02/22 10:35:27;;;;;;;7.10;4.20;;;;;;;2.99;40.79;100468.48;107895;1259;174691;-70
2023/02/22 10:37:58;;;;;;;6.30;3.90;;;;;;;3.01;40.91;100466.61;108117;1256;71622;-72
2023/02/22 10:40:32;;;;;;;6.10;3.60;;;;;;;3.08;40.74;100461.57;108107;1260;60337;-71
2023/02/22 10:43:05;;;;;;;6.60;4.30;;;;;;;3.04;40.38;100456.71;107757;1255;60431;-70
2023/02/22 10:45:33;;;;;;;;;;;;;;;3.02;40.62;100454.16;107982;1255;73674;-70
2023/02/22 10:48:10;;;;;;;6.50;3.60;;;;;;;3.00;40.73;100451.48;107922;1256;73493;-70
2023/02/22 10:50:40;;;;;;;7.60;4.30;;;;;;;2.97;40.89;100456.98;107798;1261;73606;-71
2023/02/22 10:53:16;;;;;;;6.30;3.90;;;;;;;2.98;40.94;100459.89;107968;1255;60328;-71
2023/02/22 10:56:07;;;;;;;6.60;4.40;;;;;;;2.98;40.84;100459.07;107847;1255;61106;-69
2023/02/22 10:58:46;;;;;;;8.10;4.50;;;;;;;3.03;41.16;100456.06;107979;1255;72905;-69
2023/02/22 11:01:30;;;;;;;8.90;4.50;;;;;;;3.06;40.97;100453.85;108017;1255;73887;-71
2023/02/22 11:04:09;;;;;;;6.90;4.20;;;;;;;3.15;41.11;100450.21;107982;1256;72909;-70
2023/02/22 11:06:40;;;;;;;7.50;5.10;;;;;;;3.28;41.49;100451.75;108041;1256;60329;-70
2023/02/22 11:09:17;;;;;;;8.30;5.30;;;;;;;3.24;41.40;100456.36;107932;1256;61553;-71
2023/02/22 11:11:46;;;;;;;7.00;4.50;;;;;;;3.24;41.18;100450.89;107997;1255;73178;-71
2023/02/22 11:14:29;;;;;;;8.30;4.80;;;;;;;3.22;41.27;100447.88;107835;1257;72901;-71
2023/02/22 11:16:59;;;;;;;7.80;4.70;;;;;;;3.23;41.21;100445.29;107809;1257;70916;-71
2023/02/22 11:19:33;;;;;;;8.10;4.80;;;;;;;3.20;41.33;100451.11;107936;1256;60295;-72
2023/02/22 11:22:44;;;;;;;7.50;4.50;;;;;;;3.13;41.59;100448.02;107910;1257;61061;-72
2023/02/22 11:25:47;;;;;;;9.10;4.90;;;;;;;3.11;41.85;100456.36;107705;1258;73612;-70
2023/02/22 11:28:29;;;;;;;7.90;4.90;;;;;;;3.19;42.14;100463.91;107792;1257;71267;-71
2023/02/22 11:31:08;;;;;;;7.90;4.90;;;;;;;3.27;41.46;100463.10;107826;1257;71771;-71
2023/02/22 11:33:37;;;;;;;8.40;4.70;;;;;;;3.30;41.33;100466.45;107893;1257;60891;-70
2023/02/22 11:36:08;;;;;;;7.70;5.00;;;;;;;3.30;41.33;100469.94;107810;1258;61816;-69
2023/02/22 11:38:38;;;;;;;7.70;5.10;;;;;;;3.26;41.34;100475.61;107874;1257;75138;-70
2023/02/22 11:41:13;;;;;;;8.00;4.70;;;;;;;3.15;41.48;100478.45;107940;1257;73772;-70
2023/02/22 11:43:43;;;;;;;7.80;4.90;;;;;;;3.06;41.83;100475.13;107969;1257;73153;-71
2023/02/22 11:46:21;;;;;;;8.30;5.10;;;;;;;3.01;41.82;100479.89;107923;1257;60528;-71
2023/02/22 11:49:09;;;;;;;8.40;5.00;;;;;;;2.98;41.90;100477.39;107836;1257;60653;-72
2023/02/22 11:51:52;;;;;;;8.60;4.20;;;;;;;2.96;41.71;100480.85;107913;1258;74973;-70
2023/02/22 11:54:39;;;;;;;7.50;4.50;;;;;;;2.89;41.70;100479.38;107816;1257;73941;-71
2023/02/22 11:57:35;;;;;;;7.00;4.30;;;;;;;2.82;42.18;100481.70;107773;1257;72697;-71